Time;durP1;ratioP1;P1;durP2;ratioP2;P2;SDS_P1;SDS_P2;PMS_P1;PMS_P2;Temp;Humidity;BMP_temperature;BMP_pressure;BME280_temperature;BME280_humidity;BME280_pressure;Samples;Min_cycle;Max_cycle;Signal;HPM_P1;HPM_P2
2022/10/19 00:01:07;;;;;;;15.35;3.50;;;;;;;10.68;65.15;101966.50;4916683;29;20467;-72
2022/10/19 00:03:35;;;;;;;15.85;4.38;;;;;;;10.66;65.20;101969.31;4915939;29;20052;-71
2022/10/19 00:06:17;;;;;;;17.77;3.65;;;;;;;10.61;65.27;101968.84;4915551;29;20104;-72
2022/10/19 00:08:44;;;;;;;10.68;3.05;;;;;;;10.64;65.06;101968.59;4915600;29;20040;-72
2022/10/19 00:11:11;;;;;;;18.02;4.32;;;;;;;10.66;64.96;101969.31;4916420;29;20052;-72
2022/10/19 00:13:39;;;;;;;17.52;4.05;;;;;;;10.69;64.76;101969.06;4916160;29;20058;-72
2022/10/19 00:16:11;;;;;;;16.48;3.40;;;;;;;10.69;64.64;101970.91;4916242;29;20063;-70
2022/10/19 00:18:39;;;;;;;11.75;3.40;;;;;;;10.58;65.17;101962.88;4916294;29;20416;-72
2022/10/19 00:21:08;;;;;;;16.83;3.63;;;;;;;10.61;64.56;101965.31;4915469;29;20424;-72
2022/10/19 00:23:35;;;;;;;11.13;3.25;;;;;;;10.59;64.57;101968.16;4915769;29;20048;-72
2022/10/19 00:26:01;;;;;;;16.10;3.67;;;;;;;10.69;64.13;101973.59;4915909;29;20436;-71
2022/10/19 00:28:28;;;;;;;17.13;3.40;;;;;;;10.68;64.39;101966.50;4915799;29;20408;-72
2022/10/19 00:30:55;;;;;;;16.90;3.63;;;;;;;10.55;64.58;101961.34;4915301;29;20501;-72
2022/10/19 00:33:21;;;;;;;14.55;3.55;;;;;;;10.65;64.31;101959.59;4897875;29;20059;-72
2022/10/19 00:35:51;;;;;;;17.02;3.85;;;;;;;10.68;64.47;101961.97;4915475;29;20048;-72
2022/10/19 00:38:19;;;;;;;15.50;3.13;;;;;;;10.52;64.71;101958.91;4916029;29;20432;-72
2022/10/19 00:40:47;;;;;;;13.38;3.33;;;;;;;10.63;64.45;101963.38;4915697;29;20051;-72
2022/10/19 00:43:20;;;;;;;18.92;2.88;;;;;;;10.57;64.73;101962.03;4915092;29;20056;-72
2022/10/19 00:45:47;;;;;;;12.27;3.22;;;;;;;10.63;64.62;101966.91;4915425;29;20044;-72
2022/10/19 00:48:18;;;;;;;20.75;3.63;;;;;;;10.69;64.51;101968.22;4914666;29;20056;-72
2022/10/19 00:50:46;;;;;;;18.67;3.30;;;;;;;10.60;64.70;101969.00;4915727;29;20060;-71
2022/10/19 00:53:13;;;;;;;18.17;3.70;;;;;;;10.73;64.29;101969.66;4915720;29;20052;-72
2022/10/19 00:55:40;;;;;;;13.93;3.10;;;;;;;10.64;64.51;101970.44;4915866;29;20048;-72
2022/10/19 00:58:08;;;;;;;12.77;2.75;;;;;;;10.64;64.67;101967.75;4914749;29;20508;-72
2022/10/19 01:00:35;;;;;;;11.85;2.92;;;;;;;10.64;64.22;101965.06;4913969;29;20054;-71
2022/10/19 01:03:03;;;;;;;22.45;3.08;;;;;;;10.69;63.86;101973.59;4883732;29;20064;-70
2022/10/19 01:09:16;;;;;;;21.63;2.67;;;;;;;10.75;62.99;101962.31;4876583;29;20457;-71
2022/10/19 01:11:57;;;;;;;10.90;2.95;;;;;;;10.77;63.02;101963.03;4878103;29;20048;-72
2022/10/19 01:14:35;;;;;;;16.20;2.80;;;;;;;10.70;63.21;101964.53;4861147;29;20049;-71
2022/10/19 01:17:14;;;;;;;11.40;2.72;;;;;;;10.71;63.26;101963.56;4877573;29;20068;-70
2022/10/19 01:20:20;;;;;;;16.73;3.50;;;;;;;10.71;63.05;101958.19;4876981;29;20477;-72
2022/10/19 01:23:19;;;;;;;13.55;2.15;;;;;;;10.74;62.98;101949.88;4877024;29;20045;-72
2022/10/19 01:26:01;;;;;;;11.65;2.47;;;;;;;10.73;63.25;101945.50;4842975;29;20046;-72
2022/10/19 01:28:33;;;;;;;;;;;;;;;10.78;62.97;101953.16;4877738;29;20049;-72
2022/10/19 01:31:21;;;;;;;15.93;2.85;;;;;;;10.72;63.25;101941.09;4877551;29;20329;-72
2022/10/19 01:34:00;;;;;;;7.40;2.63;;;;;;;10.77;62.99;101940.72;4876557;29;20045;-71
2022/10/19 01:37:02;;;;;;;9.85;2.40;;;;;;;10.61;63.72;101944.69;4876182;29;20051;-72
2022/10/19 01:39:45;;;;;;;18.48;2.63;;;;;;;10.64;63.74;101944.44;4846803;29;20071;-72
2022/10/19 01:42:30;;;;;;;13.07;3.00;;;;;;;10.69;63.42;101934.19;4877129;29;20109;-72
2022/10/19 01:45:06;;;;;;;20.42;3.30;;;;;;;10.60;63.78;101942.16;4877455;29;20045;-72
2022/10/19 01:47:41;;;;;;;16.13;2.95;;;;;;;10.65;63.65;101945.28;4877177;29;20049;-72
2022/10/19 01:50:11;;;;;;;13.85;3.15;;;;;;;10.56;63.92;101940.72;4877264;29;20508;-72
2022/10/19 01:52:39;;;;;;;13.45;3.00;;;;;;;10.50;64.04;101939.41;4876567;29;20052;-70
2022/10/19 01:55:08;;;;;;;15.38;2.63;;;;;;;10.53;64.06;101939.16;4875285;29;20059;-72
2022/10/19 01:57:40;;;;;;;14.82;2.55;;;;;;;10.54;64.18;101937.31;4877438;29;20056;-71
2022/10/19 02:00:12;;;;;;;12.02;2.42;;;;;;;10.53;64.20;101936.47;4876461;29;20044;-71
2022/10/19 02:02:42;;;;;;;14.02;2.58;;;;;;;10.48;64.53;101931.47;4876946;29;20394;-71
2022/10/19 02:05:10;;;;;;;13.55;2.45;;;;;;;10.45;64.51;101928.19;4876569;29;20502;-72
2022/10/19 02:07:39;;;;;;;14.32;3.20;;;;;;;10.48;64.47;101923.41;4889664;29;20055;-72
2022/10/19 02:10:06;;;;;;;16.10;2.50;;;;;;;10.51;64.32;101927.69;4913767;29;20048;-67
2022/10/19 02:12:35;;;;;;;17.88;2.67;;;;;;;10.55;64.19;101930.94;4915011;29;20047;-72
2022/10/19 02:15:11;;;;;;;10.15;2.17;;;;;;;10.58;64.00;101933.38;4914482;29;20122;-70
2022/10/19 02:17:44;;;;;;;18.70;3.15;;;;;;;10.54;64.12;101926.56;4913575;29;20051;-72
2022/10/19 02:20:11;;;;;;;11.77;3.55;;;;;;;10.46;64.38;101924.50;4914170;29;20044;-72
2022/10/19 02:22:38;;;;;;;10.40;2.17;;;;;;;10.56;64.12;101919.25;4914197;29;20048;-72
2022/10/19 02:25:06;;;;;;;18.65;2.40;;;;;;;10.53;64.06;101925.72;4914509;29;20111;-72
2022/10/19 02:27:33;;;;;;;14.80;2.70;;;;;;;10.62;63.86;101914.22;4913766;29;20047;-72
2022/10/19 02:29:59;;;;;;;17.45;2.95;;;;;;;10.56;64.01;101920.09;4914000;29;20055;-72
2022/10/19 02:32:26;;;;;;;15.52;2.65;;;;;;;10.65;63.42;101924.69;4898253;29;20063;-72
2022/10/19 02:34:53;;;;;;;15.00;2.53;;;;;;;10.58;63.80;101928.00;4875396;29;20045;-71
2022/10/19 02:37:20;;;;;;;14.13;2.47;;;;;;;10.56;63.99;101928.16;4876396;29;20446;-71
2022/10/19 02:39:50;;;;;;;14.70;2.72;;;;;;;10.59;63.84;101932.41;4876457;29;20057;-71
2022/10/19 02:42:46;;;;;;;10.35;2.83;;;;;;;10.56;63.90;101930.84;4876162;29;20135;-71
2022/10/19 02:45:26;;;;;;;14.02;2.45;;;;;;;10.58;63.68;101922.63;4876365;29;20072;-70
2022/10/19 02:48:01;;;;;;;8.85;2.13;;;;;;;10.48;64.02;101926.09;4875450;29;20045;-72
2022/10/19 02:50:28;;;;;;;7.20;2.20;;;;;;;10.54;63.71;101921.22;4876107;29;20064;-72
2022/10/19 02:52:57;;;;;;;7.85;1.95;;;;;;;10.55;63.45;101928.25;4876488;29;20112;-72
2022/10/19 02:55:24;;;;;;;9.40;1.75;;;;;;;10.65;63.18;101935.44;4876164;29;20049;-72
2022/10/19 02:57:50;;;;;;;9.73;2.08;;;;;;;10.65;62.99;101927.38;4876203;29;20056;-69
2022/10/19 03:00:17;;;;;;;14.68;2.60;;;;;;;10.61;62.94;101925.91;4875069;29;20123;-72
2022/10/19 03:02:43;;;;;;;18.45;3.40;;;;;;;10.63;63.05;101931.16;4876072;29;20131;-71
2022/10/19 03:05:09;;;;;;;9.52;1.90;;;;;;;10.54;63.19;101932.78;4876202;29;20053;-71
2022/10/19 03:07:36;;;;;;;9.10;2.47;;;;;;;10.58;63.18;101922.63;4889811;29;20568;-71
2022/10/19 03:10:03;;;;;;;11.10;1.85;;;;;;;10.48;63.37;101933.31;4912793;29;20055;-72
2022/10/19 03:12:30;;;;;;;15.10;2.17;;;;;;;10.57;63.15;101929.00;4902881;29;20048;-71
2022/10/19 03:14:56;;;;;;;9.27;1.92;;;;;;;10.47;63.24;101932.41;4912720;29;20052;-72
2022/10/19 03:17:22;;;;;;;13.75;2.10;;;;;;;10.63;62.69;101928.47;4913090;29;20412;-72
2022/10/19 03:19:49;;;;;;;15.90;3.38;;;;;;;10.62;62.76;101941.06;4913100;29;20044;-72
2022/10/19 03:22:15;;;;;;;12.90;2.58;;;;;;;10.62;62.39;101942.91;4913195;29;20055;-70
2022/10/19 03:24:42;;;;;;;12.18;2.20;;;;;;;10.61;62.64;101941.16;4912933;29;20067;-70
2022/10/19 03:27:08;;;;;;;13.95;1.92;;;;;;;10.60;62.83;101944.84;4913729;29;20052;-71
2022/10/19 03:29:35;;;;;;;8.05;2.00;;;;;;;10.64;62.69;101954.31;4913690;29;20059;-72
2022/10/19 03:32:02;;;;;;;9.15;2.00;;;;;;;10.62;62.83;101949.09;4912758;29;20051;-72
2022/10/19 03:34:28;;;;;;;9.80;1.80;;;;;;;10.58;62.87;101949.47;4896211;29;21706;-72
2022/10/19 03:36:55;;;;;;;12.15;2.00;;;;;;;10.53;63.05;101957.09;4913005;29;20051;-72
2022/10/19 03:39:22;;;;;;;14.68;2.20;;;;;;;10.62;62.73;101950.94;4912748;29;20050;-72
2022/10/19 03:41:48;;;;;;;13.02;2.78;;;;;;;10.63;62.71;101955.31;4915040;29;20048;-72
2022/10/19 03:44:15;;;;;;;10.15;1.92;;;;;;;10.59;62.95;101951.19;4915958;29;20053;-72
2022/10/19 03:46:42;;;;;;;12.02;2.08;;;;;;;10.56;63.10;101957.66;4916386;29;20135;-71
2022/10/19 03:49:09;;;;;;;8.13;1.77;;;;;;;10.55;62.98;101961.34;4917546;29;20516;-72
2022/10/19 03:51:35;;;;;;;6.28;1.73;;;;;;;10.59;62.98;101965.47;4916748;29;20047;-72
2022/10/19 03:54:05;;;;;;;16.45;2.58;;;;;;;10.62;62.94;101962.53;4916035;29;20070;-72
2022/10/19 03:56:33;;;;;;;6.35;1.98;;;;;;;10.59;62.93;101959.25;4879502;29;20045;-71
2022/10/19 03:59:01;;;;;;;7.82;1.92;;;;;;;10.56;63.13;101956.81;4878019;29;20494;-72
2022/10/19 04:01:31;;;;;;;8.32;1.60;;;;;;;10.56;63.32;101962.19;4878926;29;20056;-72
2022/10/19 04:04:03;;;;;;;15.50;2.78;;;;;;;10.52;63.30;101964.28;4878814;29;20064;-72
2022/10/19 04:06:33;;;;;;;12.90;1.80;;;;;;;10.57;63.00;101966.56;4895753;29;20060;-72
2022/10/19 04:09:00;;;;;;;11.60;2.17;;;;;;;10.56;63.16;101968.41;4914522;29;20059;-72
2022/10/19 04:11:29;;;;;;;7.38;2.10;;;;;;;10.57;63.04;101964.72;4916625;29;20048;-72
2022/10/19 04:13:57;;;;;;;12.57;2.13;;;;;;;10.51;62.99;101965.25;4886233;29;20395;-72
2022/10/19 04:16:25;;;;;;;7.30;1.75;;;;;;;10.55;62.71;101976.56;4880555;29;20162;-71
2022/10/19 04:18:52;;;;;;;7.68;1.92;;;;;;;10.61;61.77;101978.75;4889096;29;20053;-72
2022/10/19 04:21:33;;;;;;;7.03;1.48;;;;;;;10.55;61.69;101974.75;4878121;29;20427;-71
2022/10/19 04:24:05;;;;;;;13.88;2.03;;;;;;;10.55;61.53;101980.13;4877797;29;22034;-72
2022/10/19 04:26:33;;;;;;;5.10;2.22;;;;;;;10.54;61.59;101978.41;4878714;29;20060;-72
2022/10/19 04:29:00;;;;;;;6.53;1.55;;;;;;;10.58;61.57;101970.94;4878415;29;20060;-72
2022/10/19 04:31:27;;;;;;;7.85;1.48;;;;;;;10.63;61.33;101974.09;4878757;29;20073;-71
2022/10/19 04:33:54;;;;;;;9.00;2.50;;;;;;;10.64;61.29;101981.16;4878820;29;20052;-72
2022/10/19 04:36:21;;;;;;;14.40;3.85;;;;;;;10.54;61.39;101978.41;4877651;29;20402;-70
2022/10/19 04:38:47;;;;;;;6.85;1.52;;;;;;;10.55;61.03;101974.75;4878280;29;20055;-71
2022/10/19 04:41:16;;;;;;;5.85;1.40;;;;;;;10.54;61.26;101975.72;4877919;29;20045;-71
2022/10/19 04:43:46;;;;;;;5.53;1.23;;;;;;;10.54;61.00;101982.91;4878372;29;20045;-71
2022/10/19 04:46:16;;;;;;;6.70;1.38;;;;;;;10.59;60.69;101986.09;4877889;29;20045;-72
2022/10/19 04:48:44;;;;;;;6.38;1.40;;;;;;;10.62;60.72;101984.00;4878818;29;20053;-71
2022/10/19 04:51:10;;;;;;;7.13;1.42;;;;;;;10.55;60.85;101990.88;4879325;29;20049;-71
2022/10/19 04:53:38;;;;;;;10.15;1.60;;;;;;;10.60;60.67;101991.31;4878541;29;20056;-71
2022/10/19 04:56:08;;;;;;;8.85;1.50;;;;;;;10.57;60.84;101996.09;4878554;29;20049;-71
2022/10/19 04:58:34;;;;;;;6.70;1.08;;;;;;;10.59;60.66;102002.19;4877886;29;20045;-69
2022/10/19 05:01:10;;;;;;;9.20;1.38;;;;;;;10.61;60.42;101994.84;4878383;29;20053;-72
2022/10/19 05:03:37;;;;;;;6.95;1.65;;;;;;;10.55;60.63;101990.88;4878305;29;20051;-71
2022/10/19 05:06:04;;;;;;;7.90;1.27;;;;;;;10.65;60.28;101990.91;4877861;29;20045;-70
2022/10/19 05:08:31;;;;;;;7.25;1.30;;;;;;;10.70;60.08;102002.97;4905343;29;20044;-72
2022/10/19 05:11:03;;;;;;;9.30;1.30;;;;;;;10.66;60.18;101990.78;4915097;29;20048;-72
2022/10/19 05:13:30;;;;;;;;;;;;;;;10.59;60.48;102003.03;4915901;29;20416;-71
2022/10/19 05:15:57;;;;;;;4.90;1.45;;;;;;;10.61;60.23;101997.53;4914825;29;19923;-72
2022/10/19 05:18:24;;;;;;;15.95;1.38;;;;;;;10.74;59.79;102000.88;4914986;29;20074;-72
2022/10/19 05:20:59;;;;;;;9.70;1.08;;;;;;;10.72;59.87;102006.38;4914452;29;20055;-72
2022/10/19 05:23:26;;;;;;;4.75;1.33;;;;;;;10.73;60.08;102013.44;4915694;29;20048;-73
2022/10/19 05:26:07;;;;;;;3.22;1.08;;;;;;;10.66;60.31;102014.94;4913479;29;20079;-71
2022/10/19 05:28:34;;;;;;;6.70;1.42;;;;;;;10.80;59.78;102013.78;4914107;29;20056;-71
2022/10/19 05:31:12;;;;;;;7.97;1.52;;;;;;;10.80;59.83;102026.38;4914188;29;20108;-72
2022/10/19 05:33:39;;;;;;;5.82;1.20;;;;;;;10.86;59.97;102026.69;4898657;29;20580;-72
2022/10/19 05:36:21;;;;;;;23.50;1.73;;;;;;;10.77;60.23;102018.56;4915191;29;20131;-71
2022/10/19 05:38:49;;;;;;;8.65;1.88;;;;;;;10.79;60.33;102025.50;4913962;29;20044;-71
2022/10/19 05:41:16;;;;;;;9.50;1.48;;;;;;;10.70;60.80;102026.28;4914472;29;20058;-72
2022/10/19 05:43:43;;;;;;;7.85;0.95;;;;;;;10.74;60.45;102020.50;4915938;29;20063;-70
2022/10/19 05:46:12;;;;;;;14.85;2.30;;;;;;;10.75;60.02;102021.34;4914781;29;20055;-72
2022/10/19 05:48:39;;;;;;;3.28;1.27;;;;;;;10.72;59.84;102027.88;4914521;29;20051;-72
2022/10/19 05:51:07;;;;;;;6.35;1.77;;;;;;;10.62;60.26;102020.72;4913711;29;20044;-71
2022/10/19 05:53:34;;;;;;;13.35;2.05;;;;;;;10.61;60.61;102019.84;4914735;29;20052;-70
2022/10/19 05:56:03;;;;;;;18.45;1.85;;;;;;;10.64;60.42;102026.78;4914518;29;20066;-72
2022/10/19 05:58:30;;;;;;;9.75;1.52;;;;;;;10.61;60.70;102021.69;4914223;29;20055;-71
2022/10/19 06:00:58;;;;;;;5.85;1.20;;;;;;;10.60;60.90;102020.81;4911186;29;20056;-71
2022/10/19 06:03:26;;;;;;;4.70;1.90;;;;;;;10.42;61.44;102020.50;4914128;29;20518;-71
2022/10/19 06:05:53;;;;;;;5.68;1.30;;;;;;;10.48;61.42;102020.00;4914659;29;20413;-72
2022/10/19 06:08:21;;;;;;;11.77;1.60;;;;;;;10.56;61.46;102018.53;4914412;29;20044;-72
2022/10/19 06:10:48;;;;;;;8.32;1.80;;;;;;;10.68;61.47;102021.03;4914576;29;20044;-72
2022/10/19 06:13:16;;;;;;;10.68;1.38;;;;;;;10.68;61.24;102028.22;4915077;29;20048;-72
2022/10/19 06:15:43;;;;;;;7.28;1.20;;;;;;;10.72;61.45;102032.34;4914818;29;20055;-71
2022/10/19 06:18:11;;;;;;;6.05;1.40;;;;;;;10.53;61.77;102033.06;4914307;29;20048;-72
2022/10/19 06:20:39;;;;;;;6.70;1.10;;;;;;;10.72;61.08;102037.72;4913954;29;20127;-72
2022/10/19 06:23:07;;;;;;;10.07;1.55;;;;;;;10.83;60.93;102050.25;4897771;29;20058;-70
2022/10/19 06:25:34;;;;;;;8.00;1.70;;;;;;;10.78;60.88;102045.25;4912559;29;20040;-72
2022/10/19 06:28:01;;;;;;;8.48;1.40;;;;;;;10.76;61.10;102047.25;4913698;29;20055;-70
2022/10/19 06:30:28;;;;;;;7.38;1.15;;;;;;;10.88;60.84;102048.03;4914376;29;20059;-72
2022/10/19 06:32:54;;;;;;;8.82;1.20;;;;;;;10.87;60.89;102047.19;4913846;29;20083;-72
2022/10/19 06:35:21;;;;;;;10.02;1.30;;;;;;;10.78;61.70;102052.47;4913484;29;20397;-70
2022/10/19 06:37:48;;;;;;;11.50;1.75;;;;;;;10.81;61.62;102055.75;4913606;29;20052;-70
2022/10/19 06:40:14;;;;;;;14.18;1.50;;;;;;;10.75;61.77;102053.56;4913904;29;20059;-71
2022/10/19 06:42:41;;;;;;;12.45;1.95;;;;;;;10.83;61.87;102040.38;4913110;29;20067;-72
2022/10/19 06:45:08;;;;;;;11.13;1.52;;;;;;;10.70;62.21;102042.38;4914357;29;20166;-70
2022/10/19 06:47:35;;;;;;;6.75;1.55;;;;;;;10.58;62.93;102040.72;4913562;29;20055;-71
2022/10/19 06:50:04;;;;;;;10.50;1.35;;;;;;;10.62;63.01;102043.03;4913952;29;20563;-72
2022/10/19 06:52:32;;;;;;;15.65;2.47;;;;;;;10.66;62.67;102049.84;4914419;29;20048;-72
2022/10/19 06:54:59;;;;;;;8.00;1.52;;;;;;;10.68;62.80;102057.75;4913981;29;20052;-71
2022/10/19 06:57:25;;;;;;;11.20;1.75;;;;;;;10.84;62.32;102057.34;4912102;29;20082;-71
2022/10/19 06:59:52;;;;;;;14.18;3.13;;;;;;;10.77;62.85;102066.88;4912756;29;20048;-70
2022/10/19 07:02:19;;;;;;;11.27;2.35;;;;;;;10.80;62.75;102067.47;4912673;29;20048;-72
2022/10/19 07:04:46;;;;;;;15.77;3.47;;;;;;;10.71;62.90;102061.03;4914548;29;20051;-73
2022/10/19 07:07:12;;;;;;;10.05;1.58;;;;;;;10.78;62.76;102069.41;4889985;29;20063;-72
2022/10/19 07:09:38;;;;;;;10.77;2.13;;;;;;;10.68;62.89;102065.81;4914455;29;20044;-71
2022/10/19 07:12:05;;;;;;;11.80;2.35;;;;;;;10.60;63.00;102057.56;4913981;29;20058;-72
2022/10/19 07:14:37;;;;;;;11.93;2.28;;;;;;;10.71;62.97;102057.50;4914081;29;20044;-72
2022/10/19 07:17:05;;;;;;;4.18;1.10;;;;;;;10.75;62.74;102069.69;4915736;29;20083;-72
2022/10/19 07:19:31;;;;;;;8.65;1.52;;;;;;;10.74;62.50;102065.31;4918001;29;20059;-71
2022/10/19 07:21:58;;;;;;;8.43;1.75;;;;;;;10.85;62.16;102081.34;4917886;29;20051;-72
2022/10/19 07:24:24;;;;;;;8.30;2.03;;;;;;;10.94;62.04;102080.59;4917361;29;20052;-71
2022/10/19 07:26:51;;;;;;;9.80;2.22;;;;;;;10.84;62.30;102082.34;4917658;29;20055;-72
2022/10/19 07:29:17;;;;;;;12.75;2.25;;;;;;;10.78;62.67;102082.84;4918404;29;20056;-70
2022/10/19 07:31:44;;;;;;;9.15;1.50;;;;;;;11.08;61.52;102078.56;4917900;29;20048;-70
2022/10/19 07:34:12;;;;;;;11.27;1.70;;;;;;;11.25;61.23;102082.50;4917279;29;20048;-71
2022/10/19 07:36:43;;;;;;;7.75;1.85;;;;;;;11.17;61.10;102080.44;4916088;29;20060;-71
2022/10/19 07:39:11;;;;;;;15.70;2.03;;;;;;;11.43;60.62;102080.91;4917143;29;20051;-70
2022/10/19 07:41:38;;;;;;;10.60;2.05;;;;;;;11.21;61.05;102079.22;4917729;29;20055;-69
2022/10/19 07:44:05;;;;;;;11.95;1.55;;;;;;;11.41;59.99;102088.25;4916997;29;20055;-70
2022/10/19 07:46:32;;;;;;;18.38;2.28;;;;;;;11.56;59.69;102078.03;4916610;29;20531;-71
2022/10/19 07:48:59;;;;;;;5.55;1.60;;;;;;;11.53;59.49;102092.56;4917322;29;20056;-70
2022/10/19 07:51:26;;;;;;;4.28;1.30;;;;;;;11.57;59.65;102098.53;4915978;29;20041;-69
2022/10/19 07:53:58;;;;;;;8.98;1.48;;;;;;;11.80;58.65;102102.78;4915909;29;20056;-70
2022/10/19 07:56:26;;;;;;;8.40;1.35;;;;;;;11.96;58.61;102093.34;4916330;29;20044;-71
2022/10/19 07:58:55;;;;;;;10.45;1.42;;;;;;;12.27;57.26;102097.69;4915732;29;20079;-72
2022/10/19 08:01:24;;;;;;;12.02;1.00;;;;;;;12.37;57.20;102098.56;4915551;29;20055;-71
2022/10/19 08:03:53;;;;;;;6.60;1.60;;;;;;;12.09;58.02;102104.72;4916831;29;20057;-69
2022/10/19 08:06:39;;;;;;;7.47;1.60;;;;;;;12.36;57.07;102101.41;4916334;29;20056;-71
2022/10/19 08:09:06;;;;;;;9.15;2.40;;;;;;;12.33;57.13;102099.84;4916112;29;20056;-71
2022/10/19 08:11:34;;;;;;;18.05;1.75;;;;;;;12.07;57.50;102106.69;4917009;29;20044;-71
2022/10/19 08:14:03;;;;;;;10.27;1.88;;;;;;;12.15;57.29;102114.97;4916501;29;20063;-71
2022/10/19 08:16:35;;;;;;;7.88;1.45;;;;;;;11.90;57.62;102111.75;4916147;29;20512;-71
2022/10/19 08:19:06;;;;;;;10.88;1.20;;;;;;;11.95;57.24;102114.03;4916003;29;20428;-71
2022/10/19 08:21:34;;;;;;;13.88;1.52;;;;;;;11.85;58.06;102111.28;4916227;29;20048;-71
2022/10/19 08:24:00;;;;;;;12.15;1.17;;;;;;;11.80;57.97;102118.06;4916674;29;20522;-72
2022/10/19 08:26:29;;;;;;;13.02;1.95;;;;;;;11.81;57.70;102123.31;4915582;29;20044;-71
2022/10/19 08:29:03;;;;;;;14.10;1.90;;;;;;;11.72;57.74;102121.41;4915635;29;20052;-71
2022/10/19 08:31:30;;;;;;;11.48;1.88;;;;;;;11.89;57.55;102117.25;4916056;29;20055;-71
2022/10/19 08:33:56;;;;;;;13.63;1.65;;;;;;;11.92;57.34;102123.22;4916513;29;20056;-71
2022/10/19 08:36:23;;;;;;;6.45;1.60;;;;;;;11.49;58.07;102125.22;4916165;29;20048;-71
2022/10/19 08:38:50;;;;;;;9.63;2.00;;;;;;;11.84;56.83;102128.41;4916521;29;20052;-71
2022/10/19 08:41:25;;;;;;;4.00;1.30;;;;;;;11.83;57.11;102131.22;4916328;29;20063;-71
2022/10/19 08:44:10;;;;;;;9.70;1.48;;;;;;;11.51;58.04;102132.16;4899303;29;20055;-69
2022/10/19 08:47:02;;;;;;;8.50;1.58;;;;;;;11.90;56.96;102132.41;4915925;29;20052;-71
2022/10/19 08:49:32;;;;;;;7.43;1.85;;;;;;;11.87;57.09;102133.53;4897535;29;20132;-71
2022/10/19 08:52:16;;;;;;;7.25;1.00;;;;;;;11.85;56.95;102134.66;4916181;29;20052;-71
2022/10/19 08:54:50;;;;;;;10.70;1.75;;;;;;;12.10;56.27;102136.03;4898946;29;20051;-71
2022/10/19 08:57:38;;;;;;;8.48;1.98;;;;;;;12.14;56.12;102134.75;4916195;29;20051;-71
2022/10/19 09:00:35;;;;;;;13.52;1.80;;;;;;;12.35;55.78;102134.72;4915287;29;20059;-71
2022/10/19 09:03:20;;;;;;;4.88;1.38;;;;;;;12.44;55.07;102130.31;4915554;29;20051;-70
2022/10/19 09:06:11;;;;;;;9.20;1.30;;;;;;;12.54;54.62;102128.50;4914752;29;20457;-70
2022/10/19 09:08:38;;;;;;;10.52;1.65;;;;;;;12.54;54.55;102136.59;4915262;29;20424;-71
2022/10/19 09:11:08;;;;;;;9.00;1.98;;;;;;;12.80;53.90;102134.22;4915675;29;20398;-70
2022/10/19 09:13:45;;;;;;;16.70;2.38;;;;;;;12.90;53.93;102134.25;4915384;29;20132;-70
2022/10/19 09:16:31;;;;;;;14.68;1.92;;;;;;;13.05;53.71;102135.53;4915042;29;20048;-70
2022/10/19 09:18:58;;;;;;;8.57;1.95;;;;;;;13.30;53.14;102132.25;4915434;29;20060;-70
2022/10/19 09:21:53;;;;;;;11.63;1.48;;;;;;;13.23;52.85;102141.91;4915558;29;20493;-69
2022/10/19 09:24:33;;;;;;;7.75;1.40;;;;;;;13.30;53.10;102140.34;4912495;29;20523;-72
2022/10/19 09:27:01;;;;;;;8.20;1.30;;;;;;;13.02;53.22;102143.91;4915145;29;20054;-71
2022/10/19 09:29:57;;;;;;;8.23;1.15;;;;;;;12.51;53.82;102150.31;4914667;29;20048;-70
2022/10/19 09:32:29;;;;;;;5.00;1.23;;;;;;;13.42;52.06;102143.72;4915110;29;20044;-69
2022/10/19 09:35:01;;;;;;;11.18;1.77;;;;;;;14.03;50.31;102147.84;4915201;29;20052;-70
2022/10/19 09:37:28;;;;;;;9.98;1.35;;;;;;;13.52;51.54;102155.31;4915091;29;20044;-71
2022/10/19 09:40:00;;;;;;;10.25;1.95;;;;;;;13.35;51.63;102147.97;4913959;29;20067;-72
2022/10/19 09:42:35;;;;;;;8.75;1.98;;;;;;;13.82;50.56;102146.22;4914641;29;20052;-70
2022/10/19 09:45:16;;;;;;;5.57;1.20;;;;;;;15.27;47.73;102159.88;4914501;29;20055;-70
2022/10/19 09:47:46;;;;;;;14.77;2.00;;;;;;;15.65;45.74;102157.81;4914834;29;20461;-71
2022/10/19 09:50:24;;;;;;;5.70;1.20;;;;;;;14.93;46.92;102162.41;4914497;29;20052;-71
2022/10/19 09:52:54;;;;;;;5.65;1.60;;;;;;;14.99;46.54;102162.66;4914188;29;20044;-71
2022/10/19 09:55:37;;;;;;;5.05;1.40;;;;;;;14.63;47.35;102167.13;4914805;29;20054;-70
2022/10/19 09:58:05;;;;;;;11.73;1.60;;;;;;;14.23;48.62;102164.81;4914109;29;20131;-71
2022/10/19 10:00:38;;;;;;;5.30;1.40;;;;;;;14.01;49.08;102157.91;4913685;29;20496;-70
2022/10/19 10:03:06;;;;;;;7.55;1.40;;;;;;;13.93;48.98;102168.63;4914869;29;20055;-71
2022/10/19 10:05:46;;;;;;;8.80;1.48;;;;;;;13.59;49.64;102167.25;4914473;29;20052;-70
2022/10/19 10:08:19;;;;;;;9.05;1.85;;;;;;;13.38;50.39;102168.41;4914504;29;20059;-70
2022/10/19 10:11:05;;;;;;;6.05;1.80;;;;;;;13.43;49.77;102167.00;4909163;29;20071;-70
2022/10/19 10:13:36;;;;;;;7.50;2.10;;;;;;;13.31;50.12;102163.59;4913760;29;20409;-70
2022/10/19 10:16:07;;;;;;;3.30;1.07;;;;;;;12.90;50.62;102159.31;4914383;29;20047;-69
2022/10/19 10:18:37;;;;;;;17.02;1.90;;;;;;;12.90;50.75;102159.31;4912701;29;20299;-71
2022/10/19 10:21:18;;;;;;;6.63;1.33;;;;;;;12.81;50.79;102165.56;4914106;29;20052;-70
2022/10/19 10:23:58;;;;;;;6.97;2.20;;;;;;;13.08;50.53;102171.13;4914660;29;20112;-70
2022/10/19 10:26:25;;;;;;;10.60;3.30;;;;;;;13.58;48.86;102160.16;4914249;29;20051;-69
2022/10/19 10:28:51;;;;;;;10.25;3.03;;;;;;;13.21;50.46;102162.75;4915055;29;20052;-70
2022/10/19 10:31:25;;;;;;;11.55;1.40;;;;;;;13.85;48.45;102169.34;4914614;29;20052;-71
2022/10/19 10:34:01;;;;;;;5.63;1.27;;;;;;;13.78;48.56;102173.63;4914341;29;20051;-71
2022/10/19 10:36:50;;;;;;;5.45;1.52;;;;;;;13.88;47.30;102171.75;4911870;29;20103;-71
2022/10/19 10:39:16;;;;;;;4.03;1.15;;;;;;;14.22;46.23;102173.88;4910106;29;20059;-70
2022/10/19 10:41:45;;;;;;;3.75;0.93;;;;;;;14.44;44.73;102172.66;4914023;29;20511;-70
2022/10/19 10:44:28;;;;;;;5.75;1.17;;;;;;;14.45;44.34;102175.19;4912890;29;20516;-69
2022/10/19 10:46:57;;;;;;;7.47;1.35;;;;;;;13.30;46.85;102172.69;4913395;29;20048;-69
2022/10/19 10:49:35;;;;;;;6.15;0.90;;;;;;;13.45;45.96;102181.16;4913344;29;20064;-71
2022/10/19 10:52:15;;;;;;;4.80;1.10;;;;;;;12.87;47.08;102173.09;4917503;29;20496;-71
2022/10/19 10:55:17;;;;;;;8.68;1.35;;;;;;;13.29;46.92;102165.59;4917544;29;20048;-71
2022/10/19 10:57:49;;;;;;;3.90;1.08;;;;;;;14.18;44.98;102170.63;4891812;29;20060;-71
2022/10/19 11:00:22;;;;;;;5.35;1.25;;;;;;;14.70;43.16;102175.47;4916591;29;20051;-70
2022/10/19 11:02:55;;;;;;;2.90;0.90;;;;;;;15.16;41.42;102168.22;4916452;29;20044;-70
2022/10/19 11:05:32;;;;;;;3.97;1.00;;;;;;;14.16;42.56;102171.81;4918223;29;20048;-70
2022/10/19 11:08:24;;;;;;;3.65;0.82;;;;;;;15.36;40.13;102166.19;4916802;29;20055;-70
2022/10/19 11:10:56;;;;;;;4.30;0.90;;;;;;;16.40;37.81;102172.44;4917910;29;20131;-71
2022/10/19 11:13:43;;;;;;;3.53;0.80;;;;;;;15.12;38.14;102164.09;4917778;29;20048;-70
2022/10/19 11:16:16;;;;;;;3.35;0.60;;;;;;;15.25;38.52;102162.72;4916150;29;20048;-71
2022/10/19 11:19:11;;;;;;;3.67;0.80;;;;;;;15.09;39.44;102173.41;4916362;29;20044;-71
2022/10/19 11:21:49;;;;;;;5.45;1.05;;;;;;;14.48;40.50;102174.91;4917041;29;20044;-71
2022/10/19 11:24:25;;;;;;;3.00;0.85;;;;;;;14.09;40.75;102163.44;4915163;29;20063;-71
2022/10/19 11:27:14;;;;;;;6.40;0.80;;;;;;;14.15;41.08;102168.25;4916666;29;20567;-70
2022/10/19 11:29:55;;;;;;;9.00;1.10;;;;;;;14.24;40.46;102156.56;4915886;29;20052;-70
2022/10/19 11:32:57;;;;;;;5.22;0.88;;;;;;;13.89;41.85;102151.88;4917002;29;20051;-71
2022/10/19 11:35:36;;;;;;;;;;;;;;;14.05;41.27;102154.81;4917520;29;20051;-71
2022/10/19 11:38:20;;;;;;;6.13;1.20;;;;;;;13.92;41.37;102153.44;4892896;29;19923;-71
2022/10/19 11:41:14;;;;;;;4.53;0.85;;;;;;;13.95;41.19;102154.00;4917001;29;20044;-71
2022/10/19 11:44:14;;;;;;;1.77;0.52;;;;;;;15.52;39.16;102151.94;4917143;29;20492;-71
2022/10/19 11:47:04;;;;;;;2.75;0.68;;;;;;;17.95;33.65;102147.28;4906525;29;20047;-71